sensor_id;sensor_type;location;lat;lon;timestamp;P1;durP1;ratioP1;P2;durP2;ratioP2
7807;SDS011;3949;49.254;8.894;2023-01-04T00:00:44;10.67;;;7.97;;
7807;SDS011;3949;49.254;8.894;2023-01-04T00:03:10;11.90;;;8.53;;
7807;SDS011;3949;49.254;8.894;2023-01-04T00:05:36;10.77;;;8.00;;
7807;SDS011;3949;49.254;8.894;2023-01-04T00:08:02;8.83;;;7.63;;
7807;SDS011;3949;49.254;8.894;2023-01-04T00:10:29;10.23;;;7.93;;
7807;SDS011;3949;49.254;8.894;2023-01-04T00:12:55;10.57;;;7.67;;
7807;SDS011;3949;49.254;8.894;2023-01-04T00:15:21;8.87;;;7.40;;
7807;SDS011;3949;49.254;8.894;2023-01-04T00:17:46;8.27;;;6.60;;
7807;SDS011;3949;49.254;8.894;2023-01-04T00:20:12;8.07;;;6.37;;
7807;SDS011;3949;49.254;8.894;2023-01-04T00:22:38;10.73;;;6.73;;
7807;SDS011;3949;49.254;8.894;2023-01-04T00:25:04;8.70;;;6.50;;
7807;SDS011;3949;49.254;8.894;2023-01-04T00:27:31;13.53;;;8.90;;
7807;SDS011;3949;49.254;8.894;2023-01-04T00:29:56;9.53;;;7.77;;
7807;SDS011;3949;49.254;8.894;2023-01-04T00:32:22;10.87;;;8.17;;
7807;SDS011;3949;49.254;8.894;2023-01-04T00:34:48;9.90;;;8.10;;
7807;SDS011;3949;49.254;8.894;2023-01-04T00:37:14;8.83;;;6.87;;
7807;SDS011;3949;49.254;8.894;2023-01-04T00:39:40;9.03;;;7.10;;
7807;SDS011;3949;49.254;8.894;2023-01-04T00:42:06;8.30;;;7.30;;
7807;SDS011;3949;49.254;8.894;2023-01-04T00:44:33;9.60;;;7.77;;
7807;SDS011;3949;49.254;8.894;2023-01-04T00:47:00;9.40;;;8.27;;
7807;SDS011;3949;49.254;8.894;2023-01-04T00:49:27;8.50;;;7.60;;
7807;SDS011;3949;49.254;8.894;2023-01-04T00:51:53;10.47;;;7.63;;
7807;SDS011;3949;49.254;8.894;2023-01-04T00:54:19;16.70;;;9.43;;
7807;SDS011;3949;49.254;8.894;2023-01-04T00:56:45;12.33;;;9.53;;
7807;SDS011;3949;49.254;8.894;2023-01-04T00:59:12;9.70;;;8.47;;
7807;SDS011;3949;49.254;8.894;2023-01-04T01:01:38;11.07;;;8.10;;
7807;SDS011;3949;49.254;8.894;2023-01-04T01:04:05;11.37;;;8.83;;
7807;SDS011;3949;49.254;8.894;2023-01-04T01:06:31;13.80;;;10.60;;
7807;SDS011;3949;49.254;8.894;2023-01-04T01:08:57;37.13;;;21.43;;
7807;SDS011;3949;49.254;8.894;2023-01-04T01:11:24;27.87;;;19.60;;
7807;SDS011;3949;49.254;8.894;2023-01-04T01:13:50;24.03;;;16.37;;
7807;SDS011;3949;49.254;8.894;2023-01-04T01:16:17;18.67;;;13.47;;
7807;SDS011;3949;49.254;8.894;2023-01-04T01:18:44;14.97;;;12.17;;
7807;SDS011;3949;49.254;8.894;2023-01-04T01:21:16;13.67;;;10.10;;
7807;SDS011;3949;49.254;8.894;2023-01-04T01:23:42;11.47;;;8.60;;
7807;SDS011;3949;49.254;8.894;2023-01-04T01:26:10;11.27;;;8.67;;
7807;SDS011;3949;49.254;8.894;2023-01-04T01:28:37;8.57;;;7.30;;
7807;SDS011;3949;49.254;8.894;2023-01-04T01:31:22;9.47;;;7.30;;
7807;SDS011;3949;49.254;8.894;2023-01-04T01:33:49;8.50;;;7.37;;
7807;SDS011;3949;49.254;8.894;2023-01-04T01:36:15;8.00;;;6.90;;
7807;SDS011;3949;49.254;8.894;2023-01-04T01:38:42;7.70;;;6.90;;
7807;SDS011;3949;49.254;8.894;2023-01-04T01:41:10;9.90;;;7.30;;
7807;SDS011;3949;49.254;8.894;2023-01-04T01:43:45;9.00;;;7.20;;
7807;SDS011;3949;49.254;8.894;2023-01-04T01:46:13;9.53;;;7.43;;
7807;SDS011;3949;49.254;8.894;2023-01-04T01:48:39;8.10;;;7.20;;
7807;SDS011;3949;49.254;8.894;2023-01-04T01:51:05;9.97;;;7.67;;
7807;SDS011;3949;49.254;8.894;2023-01-04T01:53:33;8.40;;;7.30;;
7807;SDS011;3949;49.254;8.894;2023-01-04T01:56:00;14.77;;;9.30;;
7807;SDS011;3949;49.254;8.894;2023-01-04T01:58:32;8.93;;;8.03;;
7807;SDS011;3949;49.254;8.894;2023-01-04T02:00:59;11.70;;;8.57;;
7807;SDS011;3949;49.254;8.894;2023-01-04T02:03:32;12.20;;;8.40;;
7807;SDS011;3949;49.254;8.894;2023-01-04T02:06:00;9.77;;;7.83;;
7807;SDS011;3949;49.254;8.894;2023-01-04T02:08:27;8.33;;;7.43;;
7807;SDS011;3949;49.254;8.894;2023-01-04T02:10:53;10.27;;;7.10;;
7807;SDS011;3949;49.254;8.894;2023-01-04T02:13:20;10.13;;;7.77;;
7807;SDS011;3949;49.254;8.894;2023-01-04T02:18:14;10.17;;;7.30;;
7807;SDS011;3949;49.254;8.894;2023-01-04T02:28:46;9.80;;;7.23;;
7807;SDS011;3949;49.254;8.894;2023-01-04T02:39:16;10.10;;;7.33;;
7807;SDS011;3949;49.254;8.894;2023-01-04T02:41:45;9.67;;;7.47;;
7807;SDS011;3949;49.254;8.894;2023-01-04T02:44:16;8.27;;;6.57;;
7807;SDS011;3949;49.254;8.894;2023-01-04T02:47:35;7.93;;;6.63;;
7807;SDS011;3949;49.254;8.894;2023-01-04T02:55:32;8.47;;;6.83;;
7807;SDS011;3949;49.254;8.894;2023-01-04T02:58:00;11.07;;;7.67;;
7807;SDS011;3949;49.254;8.894;2023-01-04T03:03:26;10.67;;;7.63;;
7807;SDS011;3949;49.254;8.894;2023-01-04T03:07:36;10.20;;;7.80;;
7807;SDS011;3949;49.254;8.894;2023-01-04T03:09:30;10.10;;;7.43;;
7807;SDS011;3949;49.254;8.894;2023-01-04T03:12:03;10.27;;;7.70;;
7807;SDS011;3949;49.254;8.894;2023-01-04T03:14:57;9.40;;;7.60;;
7807;SDS011;3949;49.254;8.894;2023-01-04T03:17:24;11.10;;;7.60;;
7807;SDS011;3949;49.254;8.894;2023-01-04T03:19:51;9.67;;;7.97;;
7807;SDS011;3949;49.254;8.894;2023-01-04T03:22:35;10.43;;;7.87;;
7807;SDS011;3949;49.254;8.894;2023-01-04T03:25:25;10.80;;;7.80;;
7807;SDS011;3949;49.254;8.894;2023-01-04T03:28:11;12.80;;;8.27;;
7807;SDS011;3949;49.254;8.894;2023-01-04T03:33:58;10.43;;;7.40;;
7807;SDS011;3949;49.254;8.894;2023-01-04T03:36:44;9.27;;;7.90;;
7807;SDS011;3949;49.254;8.894;2023-01-04T03:39:20;9.87;;;7.90;;
7807;SDS011;3949;49.254;8.894;2023-01-04T03:44:55;9.37;;;7.37;;
7807;SDS011;3949;49.254;8.894;2023-01-04T03:50:29;9.57;;;7.50;;
7807;SDS011;3949;49.254;8.894;2023-01-04T03:52:56;10.90;;;7.60;;
7807;SDS011;3949;49.254;8.894;2023-01-04T03:55:23;10.57;;;8.43;;
7807;SDS011;3949;49.254;8.894;2023-01-04T03:57:50;11.30;;;8.17;;
7807;SDS011;3949;49.254;8.894;2023-01-04T04:00:17;12.23;;;8.67;;
7807;SDS011;3949;49.254;8.894;2023-01-04T04:02:44;12.30;;;9.00;;
7807;SDS011;3949;49.254;8.894;2023-01-04T04:05:15;13.37;;;8.97;;
7807;SDS011;3949;49.254;8.894;2023-01-04T04:08:00;9.03;;;7.80;;
7807;SDS011;3949;49.254;8.894;2023-01-04T04:10:44;11.17;;;8.50;;
7807;SDS011;3949;49.254;8.894;2023-01-04T04:13:10;11.80;;;8.27;;
7807;SDS011;3949;49.254;8.894;2023-01-04T04:15:36;10.40;;;7.50;;
7807;SDS011;3949;49.254;8.894;2023-01-04T04:18:03;10.33;;;7.93;;
7807;SDS011;3949;49.254;8.894;2023-01-04T04:20:29;11.87;;;9.00;;
7807;SDS011;3949;49.254;8.894;2023-01-04T04:22:55;9.17;;;8.07;;
7807;SDS011;3949;49.254;8.894;2023-01-04T04:25:21;11.17;;;8.90;;
7807;SDS011;3949;49.254;8.894;2023-01-04T04:27:47;12.43;;;8.33;;
7807;SDS011;3949;49.254;8.894;2023-01-04T04:30:13;14.30;;;9.57;;
7807;SDS011;3949;49.254;8.894;2023-01-04T04:32:39;13.73;;;9.93;;
7807;SDS011;3949;49.254;8.894;2023-01-04T04:35:05;12.23;;;8.50;;
7807;SDS011;3949;49.254;8.894;2023-01-04T04:37:32;14.60;;;9.97;;
7807;SDS011;3949;49.254;8.894;2023-01-04T04:39:59;12.73;;;9.27;;
7807;SDS011;3949;49.254;8.894;2023-01-04T04:42:25;12.77;;;8.47;;
7807;SDS011;3949;49.254;8.894;2023-01-04T04:44:51;11.63;;;8.27;;
7807;SDS011;3949;49.254;8.894;2023-01-04T04:47:17;11.73;;;9.23;;
7807;SDS011;3949;49.254;8.894;2023-01-04T04:49:43;12.17;;;8.50;;
7807;SDS011;3949;49.254;8.894;2023-01-04T04:52:09;12.10;;;8.80;;
7807;SDS011;3949;49.254;8.894;2023-01-04T04:54:35;8.83;;;7.90;;
7807;SDS011;3949;49.254;8.894;2023-01-04T04:57:01;12.03;;;7.43;;
7807;SDS011;3949;49.254;8.894;2023-01-04T04:59:27;10.17;;;8.80;;
7807;SDS011;3949;49.254;8.894;2023-01-04T05:01:53;9.70;;;7.90;;
7807;SDS011;3949;49.254;8.894;2023-01-04T05:04:19;13.07;;;8.40;;
7807;SDS011;3949;49.254;8.894;2023-01-04T05:06:48;9.53;;;8.33;;
7807;SDS011;3949;49.254;8.894;2023-01-04T05:09:14;9.70;;;8.70;;
7807;SDS011;3949;49.254;8.894;2023-01-04T05:11:40;8.97;;;7.77;;
7807;SDS011;3949;49.254;8.894;2023-01-04T05:14:25;8.80;;;7.90;;
7807;SDS011;3949;49.254;8.894;2023-01-04T05:16:51;9.03;;;8.03;;
7807;SDS011;3949;49.254;8.894;2023-01-04T05:19:17;10.03;;;8.37;;
7807;SDS011;3949;49.254;8.894;2023-01-04T05:21:43;9.10;;;7.73;;
7807;SDS011;3949;49.254;8.894;2023-01-04T05:24:10;9.93;;;8.00;;
7807;SDS011;3949;49.254;8.894;2023-01-04T05:26:36;10.40;;;9.23;;
7807;SDS011;3949;49.254;8.894;2023-01-04T05:29:02;10.17;;;9.00;;
7807;SDS011;3949;49.254;8.894;2023-01-04T05:31:28;9.70;;;8.63;;
7807;SDS011;3949;49.254;8.894;2023-01-04T05:33:54;12.43;;;9.20;;
7807;SDS011;3949;49.254;8.894;2023-01-04T05:36:20;9.73;;;8.30;;
7807;SDS011;3949;49.254;8.894;2023-01-04T05:38:46;9.80;;;8.77;;
7807;SDS011;3949;49.254;8.894;2023-01-04T05:41:12;12.53;;;9.20;;
7807;SDS011;3949;49.254;8.894;2023-01-04T05:43:57;10.77;;;8.83;;
7807;SDS011;3949;49.254;8.894;2023-01-04T05:46:23;10.13;;;8.57;;
7807;SDS011;3949;49.254;8.894;2023-01-04T05:48:49;10.40;;;9.10;;
7807;SDS011;3949;49.254;8.894;2023-01-04T05:51:16;12.60;;;8.93;;
7807;SDS011;3949;49.254;8.894;2023-01-04T05:53:41;9.07;;;7.93;;
7807;SDS011;3949;49.254;8.894;2023-01-04T05:56:07;10.27;;;8.97;;
7807;SDS011;3949;49.254;8.894;2023-01-04T05:58:33;12.80;;;9.03;;
7807;SDS011;3949;49.254;8.894;2023-01-04T06:00:59;10.70;;;9.30;;
7807;SDS011;3949;49.254;8.894;2023-01-04T06:03:25;11.63;;;9.37;;
7807;SDS011;3949;49.254;8.894;2023-01-04T06:05:51;12.73;;;9.80;;
7807;SDS011;3949;49.254;8.894;2023-01-04T06:08:18;11.33;;;9.27;;
7807;SDS011;3949;49.254;8.894;2023-01-04T06:10:44;10.73;;;9.10;;
7807;SDS011;3949;49.254;8.894;2023-01-04T06:13:09;11.13;;;8.87;;
7807;SDS011;3949;49.254;8.894;2023-01-04T06:15:36;11.40;;;9.67;;
7807;SDS011;3949;49.254;8.894;2023-01-04T06:18:02;11.00;;;9.30;;
7807;SDS011;3949;49.254;8.894;2023-01-04T06:20:27;12.70;;;9.80;;
7807;SDS011;3949;49.254;8.894;2023-01-04T06:22:53;9.90;;;8.90;;
7807;SDS011;3949;49.254;8.894;2023-01-04T06:25:19;11.47;;;9.77;;
7807;SDS011;3949;49.254;8.894;2023-01-04T06:27:45;10.00;;;8.93;;
7807;SDS011;3949;49.254;8.894;2023-01-04T06:30:11;11.60;;;9.17;;
7807;SDS011;3949;49.254;8.894;2023-01-04T06:32:37;12.10;;;9.07;;
7807;SDS011;3949;49.254;8.894;2023-01-04T06:35:03;11.20;;;9.57;;
7807;SDS011;3949;49.254;8.894;2023-01-04T06:37:30;10.50;;;9.40;;
7807;SDS011;3949;49.254;8.894;2023-01-04T06:39:56;10.47;;;9.10;;
7807;SDS011;3949;49.254;8.894;2023-01-04T06:42:22;11.40;;;10.20;;
7807;SDS011;3949;49.254;8.894;2023-01-04T06:45:06;12.13;;;9.60;;
7807;SDS011;3949;49.254;8.894;2023-01-04T06:47:32;11.47;;;9.70;;
7807;SDS011;3949;49.254;8.894;2023-01-04T06:49:58;12.07;;;9.57;;
7807;SDS011;3949;49.254;8.894;2023-01-04T06:52:25;10.70;;;8.90;;
7807;SDS011;3949;49.254;8.894;2023-01-04T06:54:51;12.00;;;9.30;;
7807;SDS011;3949;49.254;8.894;2023-01-04T06:57:17;12.10;;;9.27;;
7807;SDS011;3949;49.254;8.894;2023-01-04T06:59:43;10.07;;;9.03;;
7807;SDS011;3949;49.254;8.894;2023-01-04T07:02:11;10.53;;;8.23;;
7807;SDS011;3949;49.254;8.894;2023-01-04T07:04:38;9.20;;;8.27;;
7807;SDS011;3949;49.254;8.894;2023-01-04T07:07:04;9.27;;;8.37;;
7807;SDS011;3949;49.254;8.894;2023-01-04T07:09:30;12.63;;;10.87;;
7807;SDS011;3949;49.254;8.894;2023-01-04T07:11:56;18.43;;;14.50;;
7807;SDS011;3949;49.254;8.894;2023-01-04T07:14:23;17.73;;;14.00;;
7807;SDS011;3949;49.254;8.894;2023-01-04T07:16:49;15.33;;;12.23;;
7807;SDS011;3949;49.254;8.894;2023-01-04T07:19:15;13.97;;;11.80;;
7807;SDS011;3949;49.254;8.894;2023-01-04T07:21:41;14.53;;;11.50;;
7807;SDS011;3949;49.254;8.894;2023-01-04T07:24:07;13.30;;;11.43;;
7807;SDS011;3949;49.254;8.894;2023-01-04T07:26:33;13.13;;;11.40;;
7807;SDS011;3949;49.254;8.894;2023-01-04T07:28:59;13.57;;;12.17;;
7807;SDS011;3949;49.254;8.894;2023-01-04T07:31:45;11.17;;;10.07;;
7807;SDS011;3949;49.254;8.894;2023-01-04T07:34:11;12.70;;;10.27;;
7807;SDS011;3949;49.254;8.894;2023-01-04T07:36:37;13.53;;;10.40;;
7807;SDS011;3949;49.254;8.894;2023-01-04T07:39:04;11.97;;;10.30;;
7807;SDS011;3949;49.254;8.894;2023-01-04T07:41:30;11.73;;;9.77;;
7807;SDS011;3949;49.254;8.894;2023-01-04T07:43:56;10.50;;;9.43;;
7807;SDS011;3949;49.254;8.894;2023-01-04T07:46:22;10.33;;;9.07;;
7807;SDS011;3949;49.254;8.894;2023-01-04T07:48:48;9.80;;;8.73;;
7807;SDS011;3949;49.254;8.894;2023-01-04T07:51:14;12.70;;;9.07;;
7807;SDS011;3949;49.254;8.894;2023-01-04T07:53:40;9.60;;;8.60;;
7807;SDS011;3949;49.254;8.894;2023-01-04T07:56:06;10.53;;;8.80;;
7807;SDS011;3949;49.254;8.894;2023-01-04T07:58:33;10.37;;;8.47;;
7807;SDS011;3949;49.254;8.894;2023-01-04T08:01:06;9.87;;;8.27;;
7807;SDS011;3949;49.254;8.894;2023-01-04T08:03:32;9.33;;;8.00;;
7807;SDS011;3949;49.254;8.894;2023-01-04T08:06:01;10.43;;;7.90;;
7807;SDS011;3949;49.254;8.894;2023-01-04T08:08:27;8.60;;;7.70;;
7807;SDS011;3949;49.254;8.894;2023-01-04T08:10:53;9.07;;;7.37;;
7807;SDS011;3949;49.254;8.894;2023-01-04T08:13:19;9.47;;;7.70;;
7807;SDS011;3949;49.254;8.894;2023-01-04T08:15:51;8.43;;;7.63;;
7807;SDS011;3949;49.254;8.894;2023-01-04T08:18:17;9.00;;;7.47;;
7807;SDS011;3949;49.254;8.894;2023-01-04T08:20:43;7.03;;;6.33;;
7807;SDS011;3949;49.254;8.894;2023-01-04T08:23:09;7.97;;;6.63;;
7807;SDS011;3949;49.254;8.894;2023-01-04T08:25:35;8.67;;;7.77;;
7807;SDS011;3949;49.254;8.894;2023-01-04T08:28:01;8.83;;;7.07;;
7807;SDS011;3949;49.254;8.894;2023-01-04T08:30:27;7.13;;;6.43;;
7807;SDS011;3949;49.254;8.894;2023-01-04T08:32:53;9.57;;;7.77;;
7807;SDS011;3949;49.254;8.894;2023-01-04T08:35:19;9.97;;;8.43;;
7807;SDS011;3949;49.254;8.894;2023-01-04T08:37:45;9.60;;;8.47;;
7807;SDS011;3949;49.254;8.894;2023-01-04T08:40:11;9.67;;;8.27;;
7807;SDS011;3949;49.254;8.894;2023-01-04T08:42:37;8.83;;;7.93;;
7807;SDS011;3949;49.254;8.894;2023-01-04T08:45:03;9.97;;;7.93;;
7807;SDS011;3949;49.254;8.894;2023-01-04T08:47:29;10.10;;;8.00;;
7807;SDS011;3949;49.254;8.894;2023-01-04T08:49:56;9.10;;;7.13;;
7807;SDS011;3949;49.254;8.894;2023-01-04T08:52:22;6.87;;;6.13;;
7807;SDS011;3949;49.254;8.894;2023-01-04T08:54:48;6.47;;;5.87;;
7807;SDS011;3949;49.254;8.894;2023-01-04T08:57:16;6.63;;;5.80;;
7807;SDS011;3949;49.254;8.894;2023-01-04T08:59:42;7.07;;;5.60;;
7807;SDS011;3949;49.254;8.894;2023-01-04T09:02:17;6.47;;;5.70;;
7807;SDS011;3949;49.254;8.894;2023-01-04T09:04:44;7.07;;;5.73;;
7807;SDS011;3949;49.254;8.894;2023-01-04T09:07:10;6.63;;;5.53;;
7807;SDS011;3949;49.254;8.894;2023-01-04T09:09:36;10.43;;;6.27;;
7807;SDS011;3949;49.254;8.894;2023-01-04T09:12:02;7.20;;;5.83;;
7807;SDS011;3949;49.254;8.894;2023-01-04T09:14:28;6.03;;;5.43;;
7807;SDS011;3949;49.254;8.894;2023-01-04T09:16:54;6.37;;;4.90;;
7807;SDS011;3949;49.254;8.894;2023-01-04T09:19:20;7.40;;;5.73;;
7807;SDS011;3949;49.254;8.894;2023-01-04T09:21:46;7.10;;;5.10;;
7807;SDS011;3949;49.254;8.894;2023-01-04T09:24:13;7.20;;;5.57;;
7807;SDS011;3949;49.254;8.894;2023-01-04T09:26:39;7.93;;;6.00;;
7807;SDS011;3949;49.254;8.894;2023-01-04T09:29:05;6.70;;;5.90;;
7807;SDS011;3949;49.254;8.894;2023-01-04T09:31:31;7.87;;;5.50;;
7807;SDS011;3949;49.254;8.894;2023-01-04T09:33:57;7.50;;;6.40;;
7807;SDS011;3949;49.254;8.894;2023-01-04T09:36:23;6.80;;;6.07;;
7807;SDS011;3949;49.254;8.894;2023-01-04T09:38:50;8.93;;;5.47;;
7807;SDS011;3949;49.254;8.894;2023-01-04T09:43:49;5.90;;;5.40;;
7807;SDS011;3949;49.254;8.894;2023-01-04T09:46:17;4.80;;;4.30;;
7807;SDS011;3949;49.254;8.894;2023-01-04T09:48:46;5.53;;;5.00;;
7807;SDS011;3949;49.254;8.894;2023-01-04T09:51:14;5.30;;;4.80;;
7807;SDS011;3949;49.254;8.894;2023-01-04T09:53:52;7.60;;;4.77;;
7807;SDS011;3949;49.254;8.894;2023-01-04T09:56:25;5.43;;;4.90;;
7807;SDS011;3949;49.254;8.894;2023-01-04T09:58:52;6.20;;;5.03;;
7807;SDS011;3949;49.254;8.894;2023-01-04T10:01:20;7.40;;;5.47;;
7807;SDS011;3949;49.254;8.894;2023-01-04T10:06:32;6.43;;;4.73;;
7807;SDS011;3949;49.254;8.894;2023-01-04T10:09:01;5.20;;;4.10;;
7807;SDS011;3949;49.254;8.894;2023-01-04T10:26:50;1.90;;;1.10;;
7807;SDS011;3949;49.254;8.894;2023-01-04T10:32:14;2.50;;;0.90;;
7807;SDS011;3949;49.254;8.894;2023-01-04T10:34:42;2.80;;;1.80;;
7807;SDS011;3949;49.254;8.894;2023-01-04T10:37:10;1.43;;;0.70;;
7807;SDS011;3949;49.254;8.894;2023-01-04T10:39:38;1.90;;;0.90;;
7807;SDS011;3949;49.254;8.894;2023-01-04T10:44:40;1.13;;;0.90;;
7807;SDS011;3949;49.254;8.894;2023-01-04T10:47:13;1.83;;;1.13;;
7807;SDS011;3949;49.254;8.894;2023-01-04T10:49:55;1.60;;;0.67;;
7807;SDS011;3949;49.254;8.894;2023-01-04T10:53:05;1.10;;;0.97;;
7807;SDS011;3949;49.254;8.894;2023-01-04T10:55:23;2.50;;;1.60;;
7807;SDS011;3949;49.254;8.894;2023-01-04T10:57:52;1.27;;;0.70;;
7807;SDS011;3949;49.254;8.894;2023-01-04T11:00:22;1.20;;;0.87;;
7807;SDS011;3949;49.254;8.894;2023-01-04T11:02:58;1.97;;;1.20;;
7807;SDS011;3949;49.254;8.894;2023-01-04T11:05:37;2.50;;;1.53;;
7807;SDS011;3949;49.254;8.894;2023-01-04T11:08:07;2.00;;;1.10;;
7807;SDS011;3949;49.254;8.894;2023-01-04T11:10:35;1.77;;;1.10;;
7807;SDS011;3949;49.254;8.894;2023-01-04T11:13:03;2.00;;;1.00;;
7807;SDS011;3949;49.254;8.894;2023-01-04T11:15:29;1.97;;;1.00;;
7807;SDS011;3949;49.254;8.894;2023-01-04T11:17:55;1.47;;;1.00;;
7807;SDS011;3949;49.254;8.894;2023-01-04T11:20:22;1.20;;;0.87;;
7807;SDS011;3949;49.254;8.894;2023-01-04T11:22:56;5.70;;;3.73;;
7807;SDS011;3949;49.254;8.894;2023-01-04T11:25:23;1.03;;;0.93;;
7807;SDS011;3949;49.254;8.894;2023-01-04T11:27:59;0.97;;;0.77;;
7807;SDS011;3949;49.254;8.894;2023-01-04T11:30:28;1.03;;;0.90;;
7807;SDS011;3949;49.254;8.894;2023-01-04T11:33:08;1.30;;;1.00;;
7807;SDS011;3949;49.254;8.894;2023-01-04T11:35:38;0.90;;;0.90;;
7807;SDS011;3949;49.254;8.894;2023-01-04T11:38:18;2.93;;;1.40;;
7807;SDS011;3949;49.254;8.894;2023-01-04T11:43:23;3.17;;;1.30;;
7807;SDS011;3949;49.254;8.894;2023-01-04T11:48:18;1.93;;;1.40;;
7807;SDS011;3949;49.254;8.894;2023-01-04T11:50:45;2.57;;;1.77;;
7807;SDS011;3949;49.254;8.894;2023-01-04T11:56:11;1.10;;;1.00;;
7807;SDS011;3949;49.254;8.894;2023-01-04T11:58:38;2.63;;;1.33;;
7807;SDS011;3949;49.254;8.894;2023-01-04T12:01:04;2.43;;;1.70;;
7807;SDS011;3949;49.254;8.894;2023-01-04T12:03:34;2.13;;;1.53;;
7807;SDS011;3949;49.254;8.894;2023-01-04T12:06:02;2.83;;;0.90;;
7807;SDS011;3949;49.254;8.894;2023-01-04T12:08:35;3.20;;;1.60;;
7807;SDS011;3949;49.254;8.894;2023-01-04T12:11:03;2.00;;;1.80;;
7807;SDS011;3949;49.254;8.894;2023-01-04T12:13:30;1.27;;;1.17;;
7807;SDS011;3949;49.254;8.894;2023-01-04T12:18:24;1.17;;;0.97;;
7807;SDS011;3949;49.254;8.894;2023-01-04T12:20:51;2.03;;;1.83;;
7807;SDS011;3949;49.254;8.894;2023-01-04T12:23:17;2.00;;;0.90;;
7807;SDS011;3949;49.254;8.894;2023-01-04T12:25:44;1.77;;;1.33;;
7807;SDS011;3949;49.254;8.894;2023-01-04T12:28:35;1.97;;;1.07;;
7807;SDS011;3949;49.254;8.894;2023-01-04T12:33:51;1.73;;;1.23;;
7807;SDS011;3949;49.254;8.894;2023-01-04T12:36:52;1.50;;;1.33;;
7807;SDS011;3949;49.254;8.894;2023-01-04T12:44:00;0.93;;;0.93;;
7807;SDS011;3949;49.254;8.894;2023-01-04T12:54:47;3.07;;;1.07;;
7807;SDS011;3949;49.254;8.894;2023-01-04T12:59:52;3.27;;;2.50;;
7807;SDS011;3949;49.254;8.894;2023-01-04T13:02:22;0.90;;;0.90;;
7807;SDS011;3949;49.254;8.894;2023-01-04T13:04:50;1.60;;;0.90;;
7807;SDS011;3949;49.254;8.894;2023-01-04T13:07:20;1.07;;;0.90;;
7807;SDS011;3949;49.254;8.894;2023-01-04T13:09:51;0.70;;;0.70;;
7807;SDS011;3949;49.254;8.894;2023-01-04T13:12:38;0.77;;;0.67;;
7807;SDS011;3949;49.254;8.894;2023-01-04T13:15:09;2.03;;;0.93;;
7807;SDS011;3949;49.254;8.894;2023-01-04T13:17:37;0.83;;;0.83;;
7807;SDS011;3949;49.254;8.894;2023-01-04T13:20:14;1.33;;;0.97;;
7807;SDS011;3949;49.254;8.894;2023-01-04T13:22:42;1.60;;;0.93;;
7807;SDS011;3949;49.254;8.894;2023-01-04T13:25:10;2.80;;;1.80;;
7807;SDS011;3949;49.254;8.894;2023-01-04T13:27:37;0.87;;;0.67;;
7807;SDS011;3949;49.254;8.894;2023-01-04T13:30:03;0.80;;;0.80;;
7807;SDS011;3949;49.254;8.894;2023-01-04T13:32:29;1.30;;;0.90;;
7807;SDS011;3949;49.254;8.894;2023-01-04T13:35:02;2.10;;;1.10;;
7807;SDS011;3949;49.254;8.894;2023-01-04T13:37:35;0.97;;;0.80;;
7807;SDS011;3949;49.254;8.894;2023-01-04T13:48:10;2.13;;;1.10;;
7807;SDS011;3949;49.254;8.894;2023-01-04T13:50:59;1.90;;;0.80;;
7807;SDS011;3949;49.254;8.894;2023-01-04T13:53:25;2.07;;;0.93;;
7807;SDS011;3949;49.254;8.894;2023-01-04T13:55:55;1.87;;;1.00;;
7807;SDS011;3949;49.254;8.894;2023-01-04T13:58:22;1.10;;;1.00;;
7807;SDS011;3949;49.254;8.894;2023-01-04T14:05:46;0.77;;;0.67;;
7807;SDS011;3949;49.254;8.894;2023-01-04T14:08:15;1.00;;;0.70;;
7807;SDS011;3949;49.254;8.894;2023-01-04T14:10:43;2.57;;;0.87;;
7807;SDS011;3949;49.254;8.894;2023-01-04T14:13:13;1.53;;;1.00;;
7807;SDS011;3949;49.254;8.894;2023-01-04T14:15:39;0.70;;;0.70;;
7807;SDS011;3949;49.254;8.894;2023-01-04T14:18:20;2.33;;;0.90;;
7807;SDS011;3949;49.254;8.894;2023-01-04T14:20:48;1.10;;;0.80;;
7807;SDS011;3949;49.254;8.894;2023-01-04T14:23:24;0.80;;;0.80;;
7807;SDS011;3949;49.254;8.894;2023-01-04T14:25:51;1.63;;;1.27;;
7807;SDS011;3949;49.254;8.894;2023-01-04T14:30:52;2.30;;;1.33;;
7807;SDS011;3949;49.254;8.894;2023-01-04T14:38:36;1.43;;;1.23;;
7807;SDS011;3949;49.254;8.894;2023-01-04T14:41:09;1.63;;;1.20;;
7807;SDS011;3949;49.254;8.894;2023-01-04T14:43:36;1.50;;;1.10;;
7807;SDS011;3949;49.254;8.894;2023-01-04T14:46:07;4.20;;;2.90;;
7807;SDS011;3949;49.254;8.894;2023-01-04T14:48:33;1.30;;;1.20;;
7807;SDS011;3949;49.254;8.894;2023-01-04T14:50:59;1.40;;;1.23;;
7807;SDS011;3949;49.254;8.894;2023-01-04T14:53:26;1.27;;;0.90;;
7807;SDS011;3949;49.254;8.894;2023-01-04T14:55:52;1.10;;;1.00;;
7807;SDS011;3949;49.254;8.894;2023-01-04T14:58:19;1.07;;;0.87;;
7807;SDS011;3949;49.254;8.894;2023-01-04T15:00:45;0.80;;;0.80;;
7807;SDS011;3949;49.254;8.894;2023-01-04T15:03:11;1.53;;;0.93;;
7807;SDS011;3949;49.254;8.894;2023-01-04T15:05:37;1.20;;;1.00;;
7807;SDS011;3949;49.254;8.894;2023-01-04T15:08:04;1.20;;;1.00;;
7807;SDS011;3949;49.254;8.894;2023-01-04T15:10:30;2.33;;;0.97;;
7807;SDS011;3949;49.254;8.894;2023-01-04T15:12:56;2.13;;;1.10;;
7807;SDS011;3949;49.254;8.894;2023-01-04T15:15:24;0.80;;;0.80;;
7807;SDS011;3949;49.254;8.894;2023-01-04T15:17:50;1.07;;;0.97;;
7807;SDS011;3949;49.254;8.894;2023-01-04T15:20:17;0.80;;;0.80;;
7807;SDS011;3949;49.254;8.894;2023-01-04T15:22:43;1.27;;;0.90;;
7807;SDS011;3949;49.254;8.894;2023-01-04T15:25:09;2.80;;;2.23;;
7807;SDS011;3949;49.254;8.894;2023-01-04T15:27:35;1.50;;;1.17;;
7807;SDS011;3949;49.254;8.894;2023-01-04T15:30:01;2.53;;;1.23;;
7807;SDS011;3949;49.254;8.894;2023-01-04T15:32:27;1.30;;;1.03;;
7807;SDS011;3949;49.254;8.894;2023-01-04T15:34:53;1.17;;;0.90;;
7807;SDS011;3949;49.254;8.894;2023-01-04T15:37:19;0.83;;;0.60;;
7807;SDS011;3949;49.254;8.894;2023-01-04T15:39:46;1.33;;;0.90;;
7807;SDS011;3949;49.254;8.894;2023-01-04T15:42:12;1.33;;;1.17;;
7807;SDS011;3949;49.254;8.894;2023-01-04T15:44:57;1.33;;;0.90;;
7807;SDS011;3949;49.254;8.894;2023-01-04T15:47:23;1.90;;;1.10;;
7807;SDS011;3949;49.254;8.894;2023-01-04T15:49:49;0.73;;;0.63;;
7807;SDS011;3949;49.254;8.894;2023-01-04T15:52:15;1.73;;;1.00;;
7807;SDS011;3949;49.254;8.894;2023-01-04T15:54:41;1.10;;;0.83;;
7807;SDS011;3949;49.254;8.894;2023-01-04T15:57:07;0.80;;;0.80;;
7807;SDS011;3949;49.254;8.894;2023-01-04T15:59:33;2.17;;;1.10;;
7807;SDS011;3949;49.254;8.894;2023-01-04T16:01:59;2.03;;;1.00;;
7807;SDS011;3949;49.254;8.894;2023-01-04T16:04:25;0.97;;;0.90;;
7807;SDS011;3949;49.254;8.894;2023-01-04T16:06:53;1.63;;;0.90;;
7807;SDS011;3949;49.254;8.894;2023-01-04T16:09:19;1.83;;;1.00;;
7807;SDS011;3949;49.254;8.894;2023-01-04T16:11:44;1.53;;;1.43;;
7807;SDS011;3949;49.254;8.894;2023-01-04T16:14:29;0.97;;;0.77;;
7807;SDS011;3949;49.254;8.894;2023-01-04T16:16:55;0.90;;;0.90;;
7807;SDS011;3949;49.254;8.894;2023-01-04T16:19:21;1.83;;;1.43;;
7807;SDS011;3949;49.254;8.894;2023-01-04T16:21:47;1.50;;;1.00;;
7807;SDS011;3949;49.254;8.894;2023-01-04T16:24:13;2.53;;;1.10;;
7807;SDS011;3949;49.254;8.894;2023-01-04T16:26:39;1.73;;;0.87;;
7807;SDS011;3949;49.254;8.894;2023-01-04T16:29:05;0.97;;;0.93;;
7807;SDS011;3949;49.254;8.894;2023-01-04T16:31:34;0.97;;;0.87;;
7807;SDS011;3949;49.254;8.894;2023-01-04T16:34:01;1.50;;;1.30;;
7807;SDS011;3949;49.254;8.894;2023-01-04T16:36:27;1.33;;;1.03;;
7807;SDS011;3949;49.254;8.894;2023-01-04T16:38:53;1.03;;;1.03;;
7807;SDS011;3949;49.254;8.894;2023-01-04T16:41:19;1.20;;;1.10;;
7807;SDS011;3949;49.254;8.894;2023-01-04T16:43:49;1.07;;;0.90;;
7807;SDS011;3949;49.254;8.894;2023-01-04T16:46:22;1.60;;;1.10;;
7807;SDS011;3949;49.254;8.894;2023-01-04T16:48:52;0.93;;;0.80;;
7807;SDS011;3949;49.254;8.894;2023-01-04T16:51:19;1.67;;;1.40;;
7807;SDS011;3949;49.254;8.894;2023-01-04T16:53:45;1.43;;;1.20;;
7807;SDS011;3949;49.254;8.894;2023-01-04T16:56:13;1.90;;;1.13;;
7807;SDS011;3949;49.254;8.894;2023-01-04T16:58:39;3.00;;;2.33;;
7807;SDS011;3949;49.254;8.894;2023-01-04T17:01:10;1.93;;;1.20;;
7807;SDS011;3949;49.254;8.894;2023-01-04T17:03:36;0.73;;;0.73;;
7807;SDS011;3949;49.254;8.894;2023-01-04T17:06:21;0.90;;;0.90;;
7807;SDS011;3949;49.254;8.894;2023-01-04T17:08:48;1.03;;;0.80;;
7807;SDS011;3949;49.254;8.894;2023-01-04T17:11:16;1.70;;;1.03;;